createdAt,value
2023-04-23T00:01:06.782Z,62.33
2023-04-23T00:03:34.601Z,65.13
2023-04-23T00:06:07.852Z,66.63
2023-04-23T00:08:34.629Z,66.43
2023-04-23T00:11:01.767Z,67.53
2023-04-23T00:13:28.552Z,66.97
2023-04-23T00:15:55.506Z,64.75
2023-04-23T00:18:22.060Z,62.33
2023-04-23T00:20:48.562Z,60.17
2023-04-23T00:23:15.224Z,67.10
2023-04-23T00:25:41.677Z,65.55
2023-04-23T00:28:08.218Z,64.68
2023-04-23T00:30:34.735Z,68.60
2023-04-23T00:33:01.288Z,65.03
2023-04-23T00:35:27.908Z,68.13
2023-04-23T00:37:54.337Z,67.55
2023-04-23T00:40:21.234Z,72.45
2023-04-23T00:42:49.184Z,72.30
2023-04-23T00:45:16.698Z,75.45
2023-04-23T00:47:43.533Z,72.43
2023-04-23T00:50:10.070Z,70.07
2023-04-23T00:52:36.607Z,61.05
2023-04-23T00:55:03.206Z,66.35
2023-04-23T00:57:29.792Z,70.72
2023-04-23T00:59:58.373Z,72.05
2023-04-23T01:02:28.510Z,64.70
2023-04-23T01:04:55.977Z,71.90
2023-04-23T01:07:23.000Z,77.35
2023-04-23T01:09:51.485Z,73.97
2023-04-23T01:12:17.972Z,74.03
2023-04-23T01:14:44.844Z,74.07
2023-04-23T01:17:12.287Z,75.40
2023-04-23T01:19:39.443Z,73.90
2023-04-23T01:22:13.549Z,76.45
2023-04-23T01:24:42.714Z,78.43
2023-04-23T01:27:11.064Z,69.20
2023-04-23T01:29:38.957Z,75.85
2023-04-23T01:32:05.794Z,76.63
2023-04-23T01:34:32.902Z,86.97
2023-04-23T01:36:59.969Z,77.97
2023-04-23T01:39:26.535Z,79.35
2023-04-23T01:41:53.485Z,80.95
2023-04-23T01:44:20.428Z,80.60
2023-04-23T01:46:46.993Z,84.70
2023-04-23T01:49:13.885Z,80.57
2023-04-23T01:51:40.601Z,81.32
2023-04-23T01:54:07.086Z,83.97
2023-04-23T01:56:35.627Z,80.28
2023-04-23T01:59:02.507Z,84.93
2023-04-23T02:01:43.144Z,79.95
2023-04-23T02:04:11.522Z,87.60
2023-04-23T02:06:38.224Z,86.10
2023-04-23T02:09:04.747Z,95.28
2023-04-23T02:11:31.208Z,85.57
2023-04-23T02:13:57.695Z,87.60
2023-04-23T02:16:24.704Z,88.78
2023-04-23T02:18:51.771Z,81.47
2023-04-23T02:21:18.345Z,82.85
2023-04-23T02:23:44.834Z,77.53
2023-04-23T02:26:11.277Z,72.25
2023-04-23T02:28:37.882Z,73.90
2023-04-23T02:31:04.776Z,73.45
2023-04-23T02:33:31.273Z,77.70
2023-04-23T02:35:57.749Z,73.03
2023-04-23T02:38:24.234Z,75.88
2023-04-23T02:40:50.704Z,76.75
2023-04-23T02:43:18.236Z,77.93
2023-04-23T02:45:47.541Z,74.25
2023-04-23T02:48:14.145Z,74.18
2023-04-23T02:50:41.608Z,75.93
2023-04-23T02:53:08.182Z,76.70
2023-04-23T02:55:34.810Z,84.40
2023-04-23T02:58:01.414Z,77.75
2023-04-23T03:00:28.539Z,69.35
2023-04-23T03:02:55.135Z,81.60
2023-04-23T03:05:21.951Z,71.43
2023-04-23T03:07:48.383Z,80.75
2023-04-23T03:10:14.830Z,74.47
2023-04-23T03:12:41.289Z,75.82
2023-04-23T03:15:07.954Z,69.57
2023-04-23T03:17:34.466Z,72.90
2023-04-23T03:20:01.284Z,74.10
2023-04-23T03:22:27.833Z,67.40
2023-04-23T03:24:55.850Z,69.15
2023-04-23T03:27:22.269Z,70.20
2023-04-23T03:29:48.877Z,73.78
2023-04-23T03:32:15.440Z,70.00
2023-04-23T03:34:42.069Z,69.32
2023-04-23T03:37:09.074Z,66.93
2023-04-23T03:39:35.503Z,69.40
2023-04-23T03:42:02.000Z,67.45
2023-04-23T03:44:28.629Z,67.70
2023-04-23T03:46:55.172Z,69.65
2023-04-23T03:49:21.642Z,71.20
2023-04-23T03:51:48.181Z,70.45
2023-04-23T03:54:14.649Z,67.68
2023-04-23T03:56:41.117Z,70.35
2023-04-23T03:59:07.675Z,68.65
2023-04-23T04:01:36.215Z,65.47
2023-04-23T04:04:02.976Z,65.10
2023-04-23T04:06:29.694Z,60.08
2023-04-23T04:08:56.164Z,66.20
2023-04-23T04:11:22.635Z,66.13
2023-04-23T04:13:49.069Z,61.55
2023-04-23T04:16:15.645Z,62.08
2023-04-23T04:18:42.230Z,67.95
2023-04-23T04:21:08.691Z,66.18
2023-04-23T04:23:35.890Z,64.75
2023-04-23T04:26:02.472Z,61.35
2023-04-23T04:28:28.899Z,62.15
2023-04-23T04:30:57.550Z,67.95
2023-04-23T04:33:25.846Z,63.60
2023-04-23T04:35:52.872Z,73.50
2023-04-23T04:38:20.008Z,63.63
2023-04-23T04:40:46.525Z,62.30
2023-04-23T04:43:12.963Z,62.35
2023-04-23T04:45:39.617Z,63.60
2023-04-23T04:48:06.204Z,58.10
2023-04-23T04:50:32.683Z,64.13
2023-04-23T04:53:00.474Z,63.20
2023-04-23T04:55:27.264Z,64.40
2023-04-23T04:57:53.793Z,61.70
2023-04-23T05:00:24.273Z,58.42
2023-04-23T05:02:52.240Z,64.78
2023-04-23T05:05:20.265Z,63.63
2023-04-23T05:07:46.788Z,62.30
2023-04-23T05:10:14.272Z,62.78
2023-04-23T05:12:43.652Z,59.22
2023-04-23T05:15:15.073Z,64.00
2023-04-23T05:17:41.595Z,72.93
2023-04-23T05:20:12.626Z,63.05
2023-04-23T05:22:41.497Z,59.10
2023-04-23T05:25:09.659Z,60.90
2023-04-23T05:27:36.253Z,63.95
2023-04-23T05:30:05.142Z,68.90
2023-04-23T05:32:32.141Z,63.40
2023-04-23T05:35:00.192Z,68.18
2023-04-23T05:37:26.664Z,71.20
2023-04-23T05:39:53.111Z,56.75
2023-04-23T05:42:19.621Z,58.42
2023-04-23T05:44:46.483Z,54.78
2023-04-23T05:47:14.433Z,54.75
2023-04-23T05:49:40.988Z,52.47
2023-04-23T05:52:07.510Z,41.78
2023-04-23T05:54:33.950Z,38.95
2023-04-23T05:57:00.908Z,41.92
2023-04-23T05:59:27.363Z,26.05
2023-04-23T06:01:53.913Z,36.95
2023-04-23T06:04:20.922Z,25.63
2023-04-23T06:06:47.760Z,39.83
2023-04-23T06:09:14.237Z,39.33
2023-04-23T06:11:40.787Z,37.90
2023-04-23T06:14:07.296Z,32.88
2023-04-23T06:16:33.795Z,31.35
2023-04-23T06:19:00.373Z,34.97
2023-04-23T06:21:27.345Z,39.40
2023-04-23T06:23:54.593Z,16.75
2023-04-23T06:26:21.030Z,36.47
2023-04-23T06:28:47.493Z,32.63
2023-04-23T06:31:14.102Z,25.85
2023-04-23T06:33:40.625Z,26.98
2023-04-23T06:36:09.491Z,29.23
2023-04-23T06:38:35.998Z,30.98
2023-04-23T06:41:03.283Z,28.80
2023-04-23T06:43:30.125Z,19.25
2023-04-23T06:45:56.799Z,31.00
2023-04-23T06:48:23.273Z,22.65
2023-04-23T06:50:49.750Z,26.98
2023-04-23T06:53:16.208Z,18.92
2023-04-23T06:55:42.679Z,28.83
2023-04-23T06:58:09.319Z,29.23
2023-04-23T07:00:36.001Z,11.13
2023-04-23T07:03:02.749Z,10.68
2023-04-23T07:05:29.393Z,28.80
2023-04-23T07:07:56.030Z,25.35
2023-04-23T07:10:22.551Z,23.70
2023-04-23T07:12:49.715Z,26.08
2023-04-23T07:15:16.377Z,28.77
2023-04-23T07:17:42.892Z,26.45
2023-04-23T07:20:09.424Z,24.40
2023-04-23T07:22:35.936Z,22.13
2023-04-23T07:25:02.737Z,22.70
2023-04-23T07:27:29.265Z,20.50
2023-04-23T07:29:55.742Z,23.70
2023-04-23T07:32:23.834Z,15.65
2023-04-23T07:34:51.350Z,21.40
2023-04-23T07:37:17.831Z,22.40
2023-04-23T07:39:44.514Z,21.98
2023-04-23T07:42:11.301Z,15.90
2023-04-23T07:44:37.786Z,17.80
2023-04-23T07:47:04.445Z,23.48
2023-04-23T07:49:31.355Z,21.50
2023-04-23T07:51:57.948Z,21.23
2023-04-23T07:54:25.647Z,15.23
2023-04-23T07:56:52.264Z,16.23
2023-04-23T07:59:18.700Z,17.77
2023-04-23T08:01:45.192Z,16.83
2023-04-23T08:04:12.610Z,6.03
2023-04-23T08:06:39.274Z,9.55
2023-04-23T08:09:09.328Z,18.77
2023-04-23T08:11:35.795Z,9.90
2023-04-23T08:14:02.280Z,17.05
2023-04-23T08:16:30.395Z,13.13
2023-04-23T08:21:31.832Z,7.63
2023-04-23T08:23:58.733Z,7.43
2023-04-23T08:26:25.459Z,12.82
2023-04-23T08:28:52.299Z,13.27
2023-04-23T08:31:25.656Z,5.95
2023-04-23T08:33:53.344Z,15.43
2023-04-23T08:36:19.877Z,15.73
2023-04-23T08:38:46.381Z,4.07
2023-04-23T08:41:15.168Z,9.68
2023-04-23T08:43:47.369Z,14.13
2023-04-23T08:46:16.044Z,7.13
2023-04-23T08:48:44.936Z,7.55
2023-04-23T08:51:17.702Z,4.93
2023-04-23T08:53:46.532Z,5.10
2023-04-23T08:56:13.777Z,13.85
2023-04-23T08:58:41.792Z,9.63
2023-04-23T09:01:08.902Z,10.02
2023-04-23T09:03:36.321Z,9.27
2023-04-23T09:06:03.067Z,6.35
2023-04-23T09:08:30.931Z,2.58
2023-04-23T09:11:01.152Z,5.95
2023-04-23T09:13:28.585Z,7.50
2023-04-23T09:15:55.061Z,5.43
2023-04-23T09:18:21.722Z,8.88
2023-04-23T09:20:50.122Z,7.78
2023-04-23T09:23:16.839Z,9.50
2023-04-23T09:25:43.318Z,8.95
2023-04-23T09:28:14.103Z,11.32
2023-04-23T09:30:45.058Z,6.05
2023-04-23T09:33:12.791Z,5.68
2023-04-23T09:35:40.830Z,7.43
2023-04-23T09:38:08.151Z,4.05
2023-04-23T09:40:34.794Z,5.45
2023-04-23T09:43:04.060Z,5.35
2023-04-23T09:45:31.017Z,7.93
2023-04-23T09:47:59.005Z,3.28
2023-04-23T09:50:54.779Z,8.52
2023-04-23T09:53:21.368Z,8.80
2023-04-23T09:55:47.967Z,8.05
2023-04-23T09:58:15.677Z,7.80
2023-04-23T10:00:42.976Z,4.25
2023-04-23T10:03:10.257Z,7.22
2023-04-23T10:08:13.844Z,3.17
2023-04-23T10:10:55.205Z,9.70
2023-04-23T10:15:55.033Z,12.63
2023-04-23T10:18:21.704Z,9.75
2023-04-23T10:20:50.354Z,7.38
2023-04-23T10:23:19.513Z,7.85
2023-04-23T10:25:47.665Z,5.13
2023-04-23T10:28:17.226Z,4.97
2023-04-23T10:30:44.642Z,22.38
2023-04-23T10:33:22.357Z,4.15
2023-04-23T10:35:57.585Z,8.68
2023-04-23T10:38:28.132Z,2.22
2023-04-23T10:40:56.697Z,2.72
2023-04-23T10:43:24.598Z,4.10
2023-04-23T10:45:51.090Z,9.52
2023-04-23T10:48:17.566Z,5.72
2023-04-23T10:51:02.548Z,4.45
2023-04-23T10:53:31.822Z,6.72
2023-04-23T10:56:09.992Z,5.90
2023-04-23T10:58:50.561Z,3.40
2023-04-23T11:01:18.526Z,6.10
2023-04-23T11:03:45.570Z,5.07
2023-04-23T11:06:20.645Z,7.40
2023-04-23T11:08:54.531Z,6.68
2023-04-23T11:11:39.932Z,4.57
2023-04-23T11:14:16.220Z,6.25
2023-04-23T11:16:42.948Z,4.38
2023-04-23T11:19:17.264Z,7.75
2023-04-23T11:22:13.826Z,2.72
2023-04-23T11:24:43.257Z,7.25
2023-04-23T11:27:17.557Z,3.55
2023-04-23T11:29:46.225Z,3.20
2023-04-23T11:32:17.242Z,6.25
2023-04-23T11:34:45.378Z,3.20
2023-04-23T11:37:13.489Z,2.85
2023-04-23T11:39:42.086Z,1.92
2023-04-23T11:42:15.832Z,4.00
2023-04-23T11:44:44.389Z,4.18
2023-04-23T11:47:16.468Z,4.28
2023-04-23T11:49:44.678Z,5.07
2023-04-23T11:52:12.104Z,5.75
2023-04-23T11:54:41.867Z,7.40
2023-04-23T11:57:08.661Z,14.82
2023-04-23T11:59:35.374Z,3.28
2023-04-23T12:02:01.946Z,13.15
2023-04-23T12:04:30.104Z,11.63
2023-04-23T12:06:57.767Z,10.75
2023-04-23T12:09:26.930Z,9.88
2023-04-23T12:11:53.903Z,8.43
2023-04-23T12:14:28.455Z,10.93
2023-04-23T12:16:55.946Z,14.52
2023-04-23T12:19:31.421Z,12.10
2023-04-23T12:22:03.427Z,16.98
2023-04-23T12:24:46.433Z,14.30
2023-04-23T12:27:15.951Z,13.48
2023-04-23T12:29:42.901Z,14.05
2023-04-23T12:32:12.219Z,16.02
2023-04-23T12:34:53.090Z,14.82
2023-04-23T12:37:24.615Z,18.83
2023-04-23T12:39:52.923Z,15.90
2023-04-23T12:42:19.387Z,14.55
2023-04-23T12:44:46.302Z,13.07
2023-04-23T12:47:15.040Z,9.27
2023-04-23T12:49:43.147Z,10.82
2023-04-23T12:52:11.538Z,10.88
2023-04-23T12:54:40.767Z,7.25
2023-04-23T12:57:12.155Z,10.88
2023-04-23T12:59:38.819Z,3.20
2023-04-23T13:02:06.774Z,10.82
2023-04-23T13:04:36.102Z,11.10
2023-04-23T13:07:03.185Z,8.80
2023-04-23T13:09:30.176Z,10.23
2023-04-23T13:11:57.153Z,9.48
2023-04-23T13:14:23.732Z,7.28
2023-04-23T13:16:50.619Z,6.85
2023-04-23T13:19:17.651Z,10.88
2023-04-23T13:21:44.736Z,8.05
2023-04-23T13:24:11.362Z,5.82
2023-04-23T13:26:38.094Z,5.75
2023-04-23T13:29:04.695Z,2.47
2023-04-23T13:31:31.443Z,6.65
2023-04-23T13:33:58.118Z,3.00
2023-04-23T13:36:25.125Z,2.85
2023-04-23T13:38:52.188Z,3.97
2023-04-23T13:41:18.689Z,1.55
2023-04-23T13:43:45.248Z,2.45
2023-04-23T13:46:12.164Z,1.67
2023-04-23T13:48:38.746Z,3.50
2023-04-23T13:51:14.354Z,0.47
2023-04-23T13:53:53.133Z,4.25
2023-04-23T13:56:19.636Z,4.32
2023-04-23T13:58:48.309Z,2.05
2023-04-23T14:01:16.059Z,3.40
2023-04-23T14:03:42.606Z,6.55
2023-04-23T14:06:09.085Z,4.43
2023-04-23T14:08:38.565Z,2.20
2023-04-23T14:11:05.320Z,1.27
2023-04-23T14:13:32.776Z,5.82
2023-04-23T14:16:01.950Z,5.15
2023-04-23T14:18:30.374Z,1.25
2023-04-23T14:20:57.010Z,3.38
2023-04-23T14:23:23.421Z,4.03
2023-04-23T14:26:10.681Z,4.00
2023-04-23T14:28:44.955Z,4.20
2023-04-23T14:31:11.460Z,5.73
2023-04-23T14:33:37.920Z,3.92
2023-04-23T14:36:04.581Z,1.35
2023-04-23T14:38:31.126Z,2.55
2023-04-23T14:40:57.619Z,4.20
2023-04-23T14:43:24.089Z,3.85
2023-04-23T14:45:51.937Z,1.08
2023-04-23T14:48:18.434Z,2.25
2023-04-23T14:50:45.610Z,1.13
2023-04-23T14:53:12.138Z,1.48
2023-04-23T14:55:39.979Z,2.90
2023-04-23T14:58:06.547Z,5.65
2023-04-23T15:00:33.617Z,0.55
2023-04-23T15:03:02.595Z,5.45
2023-04-23T15:05:29.243Z,2.40
2023-04-23T15:07:55.690Z,2.78
2023-04-23T15:10:23.406Z,2.05
2023-04-23T15:13:09.036Z,2.70
2023-04-23T15:15:44.769Z,1.90
2023-04-23T15:18:14.264Z,2.13
2023-04-23T15:20:41.210Z,6.43
2023-04-23T15:23:07.756Z,2.95
2023-04-23T15:25:34.875Z,0.63
2023-04-23T15:28:02.036Z,4.13
2023-04-23T15:30:29.076Z,4.90
2023-04-23T15:32:56.423Z,3.58
2023-04-23T15:35:27.452Z,2.80
2023-04-23T15:37:54.699Z,5.07
2023-04-23T15:40:21.190Z,4.78
2023-04-23T15:42:49.833Z,4.97
2023-04-23T15:45:17.016Z,6.63
2023-04-23T15:47:43.667Z,3.67
2023-04-23T15:50:11.149Z,3.08
2023-04-23T15:52:38.036Z,3.72
2023-04-23T15:55:05.749Z,9.00
2023-04-23T15:57:32.270Z,2.28
2023-04-23T15:59:58.851Z,3.15
2023-04-23T16:02:25.529Z,1.73
2023-04-23T16:04:52.343Z,1.15
2023-04-23T16:07:18.925Z,2.08
2023-04-23T16:09:45.472Z,0.98
2023-04-23T16:12:12.773Z,2.25
2023-04-23T16:14:40.176Z,4.60
2023-04-23T16:17:06.797Z,0.70
2023-04-23T16:19:33.486Z,1.45
2023-04-23T16:22:00.216Z,1.85
2023-04-23T16:24:26.708Z,3.60
2023-04-23T16:26:53.186Z,3.95
2023-04-23T16:29:22.519Z,5.85
2023-04-23T16:31:49.563Z,0.90
2023-04-23T16:34:16.189Z,5.40
2023-04-23T16:36:42.851Z,19.02
2023-04-23T16:39:09.409Z,4.68
2023-04-23T16:41:35.922Z,1.23
2023-04-23T16:44:02.406Z,5.20
2023-04-23T16:46:30.977Z,1.95
2023-04-23T16:48:57.942Z,3.03
2023-04-23T16:51:24.803Z,7.25
2023-04-23T16:53:51.295Z,7.60
2023-04-23T16:56:17.838Z,7.10
2023-04-23T16:58:44.333Z,6.50
2023-04-23T17:01:11.016Z,11.15
2023-04-23T17:03:39.258Z,9.25
2023-04-23T17:06:27.193Z,5.70
2023-04-23T17:08:57.644Z,9.48
2023-04-23T17:11:25.103Z,9.98
2023-04-23T17:13:52.413Z,9.40
2023-04-23T17:16:19.021Z,8.15
2023-04-23T17:18:46.144Z,10.25
2023-04-23T17:21:12.768Z,13.98
2023-04-23T17:23:39.601Z,8.63
2023-04-23T17:26:06.710Z,11.48
2023-04-23T17:28:33.241Z,9.93
2023-04-23T17:31:01.143Z,9.52
2023-04-23T17:33:27.778Z,11.27
2023-04-23T17:35:55.759Z,8.73
2023-04-23T17:38:22.688Z,11.70
2023-04-23T17:40:50.122Z,9.77
2023-04-23T17:43:17.586Z,11.38
2023-04-23T17:45:45.616Z,10.98
2023-04-23T17:48:12.859Z,13.32
2023-04-23T17:50:39.454Z,13.32
2023-04-23T17:53:06.209Z,18.40
2023-04-23T17:55:33.178Z,17.55
2023-04-23T17:58:05.246Z,13.77
2023-04-23T18:00:35.973Z,14.60
2023-04-23T18:03:03.933Z,15.60
2023-04-23T18:05:31.289Z,12.10
2023-04-23T18:07:58.894Z,13.93
2023-04-23T18:10:25.557Z,15.68
2023-04-23T18:12:52.284Z,14.82
2023-04-23T18:15:18.905Z,12.93
2023-04-23T18:17:45.544Z,15.32
2023-04-23T18:20:12.539Z,13.57
2023-04-23T18:22:41.083Z,15.38
2023-04-23T18:25:12.723Z,13.50
2023-04-23T18:27:39.684Z,15.23
2023-04-23T18:30:08.174Z,15.30
2023-04-23T18:32:46.976Z,19.40
2023-04-23T18:35:13.761Z,14.30
2023-04-23T18:37:52.947Z,13.73
2023-04-23T18:40:19.681Z,15.52
2023-04-23T18:42:46.156Z,14.55
2023-04-23T18:45:12.786Z,14.00
2023-04-23T18:47:58.199Z,13.27
2023-04-23T18:50:41.531Z,16.00
2023-04-23T18:53:08.016Z,10.32
2023-04-23T18:55:34.481Z,13.13
2023-04-23T18:58:01.173Z,13.35
2023-04-23T19:00:27.691Z,12.35
2023-04-23T19:02:54.292Z,11.73
2023-04-23T19:05:20.917Z,12.30
2023-04-23T19:07:48.461Z,12.20
2023-04-23T19:10:16.320Z,16.40
2023-04-23T19:12:43.792Z,12.13
2023-04-23T19:15:11.445Z,17.55
2023-04-23T19:17:38.569Z,12.00
2023-04-23T19:20:06.536Z,12.68
2023-04-23T19:22:33.052Z,14.95
2023-04-23T19:24:59.512Z,10.80
2023-04-23T19:27:25.997Z,11.15
2023-04-23T19:29:54.376Z,10.77
2023-04-23T19:32:22.095Z,10.07
2023-04-23T19:34:48.552Z,11.65
2023-04-23T19:37:14.999Z,11.18
2023-04-23T19:39:41.661Z,14.32
2023-04-23T19:42:08.402Z,10.23
2023-04-23T19:44:34.874Z,10.85
2023-04-23T19:47:01.544Z,7.63
2023-04-23T19:49:28.056Z,6.65
2023-04-23T19:51:56.810Z,9.73
2023-04-23T19:54:24.724Z,9.07
2023-04-23T19:56:51.600Z,7.20
2023-04-23T19:59:20.898Z,8.02
2023-04-23T20:01:48.156Z,3.92
2023-04-23T20:04:15.222Z,7.93
2023-04-23T20:06:41.893Z,9.20
2023-04-23T20:09:08.550Z,7.55
2023-04-23T20:11:35.863Z,4.57
2023-04-23T20:14:03.127Z,4.45
2023-04-23T20:16:29.725Z,5.30
2023-04-23T20:18:56.578Z,2.85
2023-04-23T20:21:23.547Z,7.13
2023-04-23T20:23:51.224Z,2.90
2023-04-23T20:26:18.801Z,3.58
2023-04-23T20:28:47.344Z,3.83
2023-04-23T20:31:14.699Z,5.28
2023-04-23T20:33:41.383Z,1.08
2023-04-23T20:36:11.044Z,1.38
2023-04-23T20:38:38.978Z,1.55
2023-04-23T20:41:05.978Z,2.38
2023-04-23T20:43:34.190Z,3.17
2023-04-23T20:46:01.611Z,1.38
2023-04-23T20:48:29.960Z,1.77
2023-04-23T20:50:59.895Z,1.52
2023-04-23T20:53:26.804Z,0.82
2023-04-23T20:55:53.254Z,2.90
2023-04-23T20:58:19.720Z,0.88
2023-04-23T21:00:46.365Z,0.30
2023-04-23T21:03:13.115Z,1.45
2023-04-23T21:05:44.138Z,0.88
2023-04-23T21:08:11.712Z,3.80
2023-04-23T21:10:38.995Z,0.60
2023-04-23T21:13:11.155Z,1.90
2023-04-23T21:15:38.598Z,2.60
2023-04-23T21:18:05.820Z,2.53
2023-04-23T21:20:32.477Z,1.30
2023-04-23T21:22:58.941Z,2.20
2023-04-23T21:25:26.703Z,1.55
2023-04-23T21:27:55.211Z,2.28
2023-04-23T21:30:27.292Z,3.25
2023-04-23T21:32:54.226Z,2.15
2023-04-23T21:35:20.880Z,1.27
2023-04-23T21:37:47.395Z,4.25
2023-04-23T21:40:13.904Z,1.23
2023-04-23T21:42:40.670Z,1.20
2023-04-23T21:45:07.670Z,1.27
2023-04-23T21:47:34.137Z,3.00
2023-04-23T21:50:01.421Z,0.70
2023-04-23T21:52:27.899Z,1.30
2023-04-23T21:54:54.354Z,0.40
2023-04-23T21:57:20.971Z,1.88
2023-04-23T21:59:47.580Z,3.10
2023-04-23T22:02:14.581Z,0.90
2023-04-23T22:04:41.084Z,2.35
2023-04-23T22:07:12.425Z,4.90
2023-04-23T22:09:40.834Z,4.10
2023-04-23T22:12:08.173Z,2.05
2023-04-23T22:14:35.067Z,1.52
2023-04-23T22:17:02.419Z,2.00
2023-04-23T22:19:31.152Z,1.08
2023-04-23T22:21:57.794Z,2.53
2023-04-23T22:24:24.265Z,1.95
2023-04-23T22:26:50.784Z,1.52
2023-04-23T22:29:17.310Z,3.55
2023-04-23T22:31:43.878Z,5.18
2023-04-23T22:34:10.583Z,1.80
2023-04-23T22:36:37.139Z,4.43
2023-04-23T22:39:05.732Z,1.15
2023-04-23T22:41:33.795Z,3.08
2023-04-23T22:44:00.857Z,2.75
2023-04-23T22:46:27.977Z,1.02
2023-04-23T22:48:54.798Z,2.22
2023-04-23T22:51:21.309Z,0.77
2023-04-23T22:53:47.950Z,0.65
2023-04-23T22:56:14.446Z,1.40
2023-04-23T22:58:41.009Z,1.95
2023-04-23T23:01:07.524Z,4.35
2023-04-23T23:03:34.154Z,1.92
2023-04-23T23:06:00.766Z,0.65
2023-04-23T23:08:27.233Z,1.45
2023-04-23T23:10:53.699Z,1.02
2023-04-23T23:13:20.131Z,2.15
2023-04-23T23:15:46.847Z,0.85
2023-04-23T23:18:13.396Z,1.27
2023-04-23T23:20:41.080Z,0.85
2023-04-23T23:23:07.598Z,0.85
2023-04-23T23:25:38.173Z,0.98
2023-04-23T23:28:05.270Z,2.40
2023-04-23T23:30:31.909Z,0.85
2023-04-23T23:32:58.652Z,2.97
2023-04-23T23:35:25.346Z,2.70
2023-04-23T23:37:51.807Z,2.65
2023-04-23T23:40:18.361Z,3.78
2023-04-23T23:42:44.802Z,0.82
2023-04-23T23:45:11.480Z,2.22
2023-04-23T23:47:38.172Z,1.70
2023-04-23T23:50:05.731Z,1.13
2023-04-23T23:52:32.433Z,1.20
2023-04-23T23:54:58.901Z,4.57
2023-04-23T23:57:25.382Z,2.95
2023-04-23T23:59:51.867Z,1.73
